createdAt,value
2023-01-13T00:01:20.419Z,82.61
2023-01-13T00:03:48.342Z,82.38
2023-01-13T00:06:22.111Z,82.95
2023-01-13T00:08:50.975Z,83.13
2023-01-13T00:11:19.821Z,83.24
2023-01-13T00:13:47.949Z,83.09
2023-01-13T00:16:17.479Z,82.93
2023-01-13T00:18:46.018Z,83.10
2023-01-13T00:21:21.562Z,82.74
2023-01-13T00:23:48.834Z,82.76
2023-01-13T00:26:22.103Z,83.12
2023-01-13T00:28:49.710Z,82.98
2023-01-13T00:31:19.789Z,83.21
2023-01-13T00:33:49.358Z,83.48
2023-01-13T00:36:17.502Z,83.60
2023-01-13T00:38:44.876Z,83.97
2023-01-13T00:41:17.300Z,83.65
2023-01-13T00:43:44.741Z,83.94
2023-01-13T00:46:15.339Z,84.13
2023-01-13T00:48:42.477Z,84.19
2023-01-13T00:51:15.104Z,83.88
2023-01-13T00:53:45.558Z,84.18
2023-01-13T00:56:34.152Z,83.86
2023-01-13T00:59:05.980Z,84.16
2023-01-13T01:01:33.488Z,84.12
2023-01-13T01:04:00.564Z,84.27
2023-01-13T01:06:28.373Z,84.23
2023-01-13T01:08:56.613Z,84.44
2023-01-13T01:11:29.921Z,84.32
2023-01-13T01:13:58.869Z,84.45
2023-01-13T01:16:28.833Z,84.49
2023-01-13T01:18:56.483Z,84.69
2023-01-13T01:21:26.008Z,84.89
2023-01-13T01:23:53.166Z,84.89
2023-01-13T01:26:26.104Z,84.88
2023-01-13T01:28:53.935Z,84.56
2023-01-13T01:31:31.652Z,85.00
2023-01-13T01:34:00.681Z,84.88
2023-01-13T01:36:31.668Z,85.29
2023-01-13T01:38:59.102Z,85.20
2023-01-13T01:41:29.005Z,85.16
2023-01-13T01:44:07.447Z,85.52
2023-01-13T01:46:44.942Z,85.31
2023-01-13T01:49:24.724Z,85.12
2023-01-13T01:52:28.642Z,85.40
2023-01-13T01:54:55.936Z,85.21
2023-01-13T01:57:29.385Z,85.09
2023-01-13T02:00:01.275Z,84.84
2023-01-13T02:02:30.803Z,84.74
2023-01-13T02:04:59.550Z,84.92
2023-01-13T02:07:33.558Z,85.19
2023-01-13T02:10:30.924Z,85.37
2023-01-13T02:13:17.858Z,85.62
2023-01-13T02:16:07.644Z,85.79
2023-01-13T02:19:04.573Z,85.35
2023-01-13T02:22:11.204Z,85.39
2023-01-13T02:25:22.056Z,85.75
2023-01-13T02:28:14.797Z,85.61
2023-01-13T02:31:06.390Z,85.63
2023-01-13T02:33:50.653Z,86.24
2023-01-13T02:36:32.150Z,86.24
2023-01-13T02:39:03.802Z,86.59
2023-01-13T02:42:15.460Z,87.09
2023-01-13T02:44:52.479Z,87.48
2023-01-13T02:47:28.901Z,87.35
2023-01-13T02:50:11.488Z,87.33
2023-01-13T02:52:43.932Z,87.43
2023-01-13T02:55:18.466Z,87.71
2023-01-13T02:57:47.127Z,88.08
2023-01-13T03:00:16.748Z,87.95
2023-01-13T03:02:43.742Z,88.37
2023-01-13T03:05:15.689Z,88.06
2023-01-13T03:08:10.001Z,88.02
2023-01-13T03:10:51.888Z,88.01
2023-01-13T03:13:30.603Z,87.66
2023-01-13T03:16:17.054Z,87.41
2023-01-13T03:18:56.112Z,87.28
2023-01-13T03:21:34.995Z,86.60
2023-01-13T03:24:37.023Z,86.07
2023-01-13T03:27:25.428Z,85.83
2023-01-13T03:29:58.950Z,85.23
2023-01-13T03:32:39.297Z,84.72
2023-01-13T03:35:18.996Z,84.21
2023-01-13T03:37:52.797Z,83.78
2023-01-13T03:40:26.905Z,83.23
2023-01-13T03:43:22.653Z,82.40
2023-01-13T03:45:56.924Z,81.62
2023-01-13T03:48:28.163Z,81.35
2023-01-13T03:51:00.375Z,81.39
2023-01-13T03:53:46.774Z,80.77
2023-01-13T03:56:39.408Z,80.87
2023-01-13T03:59:11.923Z,80.22
2023-01-13T04:02:01.812Z,80.76
2023-01-13T04:04:39.541Z,80.35
2023-01-13T04:07:25.006Z,80.25
2023-01-13T04:09:56.700Z,80.32
2023-01-13T04:12:49.758Z,79.78
2023-01-13T04:15:22.765Z,79.99
2023-01-13T04:17:51.194Z,79.67
2023-01-13T04:20:18.354Z,79.90
2023-01-13T04:22:45.373Z,80.26
2023-01-13T04:25:12.455Z,80.60
2023-01-13T04:27:39.366Z,80.24
2023-01-13T04:30:07.149Z,79.81
2023-01-13T04:32:34.390Z,79.84
2023-01-13T04:35:01.343Z,79.75
2023-01-13T04:37:28.285Z,79.98
2023-01-13T04:39:55.244Z,80.01
2023-01-13T04:42:22.153Z,80.18
2023-01-13T04:44:49.029Z,80.01
2023-01-13T04:47:15.993Z,80.49
2023-01-13T04:49:42.883Z,80.24
2023-01-13T04:52:09.880Z,80.09
2023-01-13T04:54:36.912Z,80.20
2023-01-13T04:57:03.884Z,80.39
2023-01-13T04:59:30.757Z,80.03
2023-01-13T05:01:57.708Z,80.18
2023-01-13T05:04:24.942Z,80.57
2023-01-13T05:06:52.183Z,80.09
2023-01-13T05:09:19.305Z,79.72
2023-01-13T05:12:04.609Z,80.03
2023-01-13T05:14:49.979Z,80.07
2023-01-13T05:17:22.831Z,80.31
2023-01-13T05:19:49.819Z,80.05
2023-01-13T05:22:35.188Z,80.37
2023-01-13T05:25:20.692Z,80.30
2023-01-13T05:27:48.384Z,80.07
2023-01-13T05:30:15.979Z,80.22
2023-01-13T05:32:43.037Z,80.59
2023-01-13T05:35:10.082Z,80.43
2023-01-13T05:37:37.019Z,80.89
2023-01-13T05:40:23.706Z,80.24
2023-01-13T05:43:21.983Z,80.18
2023-01-13T05:46:03.722Z,80.07
2023-01-13T05:48:40.339Z,80.27
2023-01-13T05:51:09.409Z,79.70
2023-01-13T05:53:37.079Z,78.98
2023-01-13T05:56:05.266Z,79.41
2023-01-13T05:58:32.222Z,79.03
2023-01-13T06:01:09.712Z,79.32
2023-01-13T06:03:37.756Z,79.01
2023-01-13T06:06:05.029Z,78.88
2023-01-13T06:08:33.030Z,79.28
2023-01-13T06:11:00.381Z,79.26
2023-01-13T06:13:27.693Z,79.43
2023-01-13T06:15:58.988Z,78.88
2023-01-13T06:18:26.449Z,78.72
2023-01-13T06:20:53.421Z,78.40
2023-01-13T06:23:21.308Z,78.90
2023-01-13T06:25:58.980Z,78.44
2023-01-13T06:28:26.153Z,78.22
2023-01-13T06:30:57.997Z,78.56
2023-01-13T06:33:32.843Z,78.23
2023-01-13T06:36:04.747Z,78.08
2023-01-13T06:38:37.688Z,78.19
2023-01-13T06:41:07.396Z,78.03
2023-01-13T06:43:34.468Z,78.38
2023-01-13T06:46:02.658Z,78.16
2023-01-13T06:48:34.375Z,77.95
2023-01-13T06:51:02.273Z,78.18
2023-01-13T06:53:29.202Z,78.07
2023-01-13T06:55:56.139Z,78.24
2023-01-13T06:58:23.111Z,78.33
2023-01-13T07:00:51.826Z,78.25
2023-01-13T07:03:19.790Z,78.01
2023-01-13T07:05:53.708Z,77.91
2023-01-13T07:08:20.921Z,77.81
2023-01-13T07:10:47.947Z,77.66
2023-01-13T07:13:35.823Z,78.21
2023-01-13T07:16:05.941Z,77.95
2023-01-13T07:18:34.646Z,77.69
2023-01-13T07:21:04.346Z,78.19
2023-01-13T07:23:33.605Z,77.89
2023-01-13T07:26:00.793Z,77.77
2023-01-13T07:28:29.475Z,77.73
2023-01-13T07:30:56.730Z,78.10
2023-01-13T07:33:24.372Z,77.57
2023-01-13T07:36:02.710Z,77.68
2023-01-13T07:38:30.495Z,77.85
2023-01-13T07:40:57.433Z,77.75
2023-01-13T07:43:33.394Z,77.73
2023-01-13T07:46:03.335Z,77.43
2023-01-13T07:48:31.466Z,77.72
2023-01-13T07:51:08.961Z,77.48
2023-01-13T07:53:37.070Z,77.10
2023-01-13T07:56:06.498Z,77.30
2023-01-13T07:58:34.989Z,77.39
2023-01-13T08:01:10.753Z,76.66
2023-01-13T08:03:38.184Z,76.42
2023-01-13T08:06:06.590Z,76.20
2023-01-13T08:11:02.223Z,75.97
2023-01-13T08:13:29.557Z,75.69
2023-01-13T08:16:05.420Z,75.95
2023-01-13T08:18:33.181Z,75.96
2023-01-13T08:21:06.497Z,75.28
2023-01-13T08:23:33.588Z,75.07
2023-01-13T08:26:05.997Z,75.20
2023-01-13T08:28:33.296Z,74.03
2023-01-13T08:31:02.489Z,74.23
2023-01-13T08:33:30.309Z,74.27
2023-01-13T08:35:57.638Z,73.24
2023-01-13T08:38:25.387Z,74.19
2023-01-13T08:40:52.600Z,73.75
2023-01-13T08:43:19.458Z,74.06
2023-01-13T08:45:46.632Z,72.70
2023-01-13T08:48:13.627Z,71.66
2023-01-13T08:50:40.605Z,71.97
2023-01-13T08:53:07.533Z,72.03
2023-01-13T08:55:34.548Z,71.18
2023-01-13T08:58:14.684Z,71.39
2023-01-13T09:00:43.345Z,71.83
2023-01-13T09:03:10.271Z,71.65
2023-01-13T09:05:37.366Z,71.40
2023-01-13T09:08:04.361Z,71.13
2023-01-13T09:10:31.483Z,70.95
2023-01-13T09:13:13.638Z,69.50
2023-01-13T09:15:42.598Z,71.10
2023-01-13T09:18:09.996Z,70.46
2023-01-13T09:20:37.030Z,70.05
2023-01-13T09:23:06.074Z,70.10
2023-01-13T09:25:36.781Z,69.97
2023-01-13T09:28:05.252Z,70.06
2023-01-13T09:30:32.347Z,69.22
2023-01-13T09:33:18.842Z,68.79
2023-01-13T09:35:46.821Z,69.38
2023-01-13T09:38:13.767Z,70.14
2023-01-13T09:40:44.146Z,70.11
2023-01-13T09:43:55.691Z,68.92
2023-01-13T09:46:44.195Z,69.88
2023-01-13T09:49:26.938Z,69.18
2023-01-13T09:52:21.896Z,69.22
2023-01-13T09:54:55.986Z,69.65
2023-01-13T09:57:23.377Z,68.39
2023-01-13T09:59:50.776Z,68.23
2023-01-13T10:02:44.989Z,68.01
2023-01-13T10:05:26.870Z,68.00
2023-01-13T10:08:00.032Z,67.42
2023-01-13T10:10:42.289Z,68.11
2023-01-13T10:13:16.597Z,67.00
2023-01-13T10:15:53.839Z,67.11
2023-01-13T10:18:33.336Z,68.42
2023-01-13T10:21:20.300Z,66.02
2023-01-13T10:24:24.355Z,65.44
2023-01-13T10:27:23.449Z,65.24
2023-01-13T10:29:50.365Z,65.82
2023-01-13T10:32:17.297Z,65.21
2023-01-13T10:34:51.996Z,65.38
2023-01-13T10:37:26.279Z,65.50
2023-01-13T10:40:00.727Z,65.36
2023-01-13T10:42:28.032Z,65.32
2023-01-13T10:44:57.545Z,65.32
2023-01-13T10:47:30.175Z,65.15
2023-01-13T10:50:03.146Z,63.75
2023-01-13T10:52:33.563Z,64.53
2023-01-13T10:55:03.749Z,64.11
2023-01-13T10:57:37.181Z,63.68
2023-01-13T11:00:05.669Z,63.38
2023-01-13T11:02:36.249Z,63.48
2023-01-13T11:05:18.876Z,63.26
2023-01-13T11:07:52.706Z,63.12
2023-01-13T11:10:22.795Z,64.00
2023-01-13T11:13:06.374Z,63.49
2023-01-13T11:15:45.129Z,62.90
2023-01-13T11:18:51.996Z,64.45
2023-01-13T11:21:28.228Z,64.16
2023-01-13T11:24:15.389Z,63.58
2023-01-13T11:26:53.855Z,63.49
2023-01-13T11:29:26.824Z,64.62
2023-01-13T11:32:03.818Z,64.46
2023-01-13T11:34:35.841Z,63.96
2023-01-13T11:37:10.120Z,63.99
2023-01-13T11:39:44.690Z,64.65
2023-01-13T11:42:46.135Z,65.19
2023-01-13T11:45:22.051Z,65.03
2023-01-13T11:47:52.408Z,64.85
2023-01-13T11:50:27.800Z,64.67
2023-01-13T11:53:16.122Z,64.14
2023-01-13T11:55:55.032Z,64.43
2023-01-13T11:58:50.519Z,64.72
2023-01-13T12:01:55.735Z,65.24
2023-01-13T12:04:33.524Z,66.13
2023-01-13T12:07:14.542Z,65.38
2023-01-13T12:10:03.209Z,65.33
2023-01-13T12:12:59.430Z,65.35
2023-01-13T12:15:53.775Z,65.59
2023-01-13T12:18:42.152Z,66.22
2023-01-13T12:21:34.359Z,65.38
2023-01-13T12:24:06.423Z,65.37
2023-01-13T12:26:38.347Z,65.58
2023-01-13T12:29:19.139Z,65.32
2023-01-13T12:31:49.390Z,65.60
2023-01-13T12:34:24.769Z,65.95
2023-01-13T12:37:06.591Z,65.63
2023-01-13T12:39:42.620Z,66.25
2023-01-13T12:42:38.495Z,65.65
2023-01-13T12:45:11.234Z,66.31
2023-01-13T12:47:49.383Z,66.00
2023-01-13T12:50:22.644Z,66.17
2023-01-13T12:52:57.546Z,66.69
2023-01-13T12:55:28.581Z,66.21
2023-01-13T12:58:17.087Z,66.95
2023-01-13T13:00:45.567Z,66.46
2023-01-13T13:03:12.555Z,66.53
2023-01-13T13:05:55.836Z,66.58
2023-01-13T13:08:58.228Z,67.18
2023-01-13T13:11:57.909Z,67.06
2023-01-13T13:14:40.169Z,66.27
2023-01-13T13:17:29.966Z,66.76
2023-01-13T13:19:58.109Z,66.45
2023-01-13T13:22:28.157Z,67.38
2023-01-13T13:24:55.088Z,66.54
2023-01-13T13:27:34.179Z,66.82
2023-01-13T13:30:28.860Z,67.04
2023-01-13T13:33:39.275Z,67.86
2023-01-13T13:36:40.806Z,67.75
2023-01-13T13:39:47.221Z,67.04
2023-01-13T13:42:55.083Z,67.29
2023-01-13T13:45:43.966Z,67.20
2023-01-13T13:48:28.566Z,67.64
2023-01-13T13:51:02.150Z,67.23
2023-01-13T13:53:34.662Z,67.77
2023-01-13T13:56:04.885Z,68.56
2023-01-13T13:58:35.796Z,69.00
2023-01-13T14:01:04.469Z,69.33
2023-01-13T14:03:34.717Z,68.68
2023-01-13T14:06:07.292Z,68.75
2023-01-13T14:08:38.612Z,69.11
2023-01-13T14:11:28.734Z,68.80
2023-01-13T14:14:07.471Z,69.30
2023-01-13T14:16:36.402Z,69.61
2023-01-13T14:19:04.499Z,70.07
2023-01-13T14:21:31.880Z,70.41
2023-01-13T14:24:05.766Z,71.10
2023-01-13T14:26:32.995Z,71.44
2023-01-13T14:29:02.213Z,72.14
2023-01-13T14:31:30.559Z,72.19
2023-01-13T14:34:01.503Z,72.19
2023-01-13T14:36:34.559Z,72.34
2023-01-13T14:39:04.414Z,72.11
2023-01-13T14:41:43.254Z,72.27
2023-01-13T14:44:32.186Z,72.08
2023-01-13T14:47:03.337Z,72.60
2023-01-13T14:49:39.996Z,72.40
2023-01-13T14:52:21.083Z,71.80
2023-01-13T14:54:52.628Z,72.63
2023-01-13T14:57:32.077Z,72.26
2023-01-13T15:00:14.356Z,72.45
2023-01-13T15:02:59.768Z,71.84
2023-01-13T15:05:26.683Z,72.04
2023-01-13T15:07:57.725Z,72.35
2023-01-13T15:10:28.970Z,71.92
2023-01-13T15:12:58.410Z,72.53
2023-01-13T15:15:34.855Z,71.64
2023-01-13T15:18:08.747Z,72.59
2023-01-13T15:20:35.679Z,72.93
2023-01-13T15:23:03.727Z,73.80
2023-01-13T15:25:39.594Z,73.77
2023-01-13T15:28:09.257Z,73.77
2023-01-13T15:30:36.261Z,73.80
2023-01-13T15:33:03.316Z,73.73
2023-01-13T15:35:30.392Z,73.63
2023-01-13T15:37:58.075Z,73.50
2023-01-13T15:40:30.841Z,73.58
2023-01-13T15:43:16.312Z,73.52
2023-01-13T15:46:02.575Z,73.44
2023-01-13T15:48:33.678Z,73.23
2023-01-13T15:51:02.700Z,73.74
2023-01-13T15:53:30.688Z,73.37
2023-01-13T15:55:59.143Z,73.00
2023-01-13T15:58:29.623Z,72.55
2023-01-13T16:00:56.658Z,72.99
2023-01-13T16:03:26.124Z,72.88
2023-01-13T16:05:52.999Z,73.20
2023-01-13T16:08:22.890Z,73.60
2023-01-13T16:10:50.708Z,73.24
2023-01-13T16:13:18.458Z,73.50
2023-01-13T16:15:56.781Z,73.88
2023-01-13T16:18:24.589Z,73.70
2023-01-13T16:20:55.454Z,73.50
2023-01-13T16:23:23.465Z,73.81
2023-01-13T16:25:50.770Z,73.88
2023-01-13T16:28:23.039Z,73.66
2023-01-13T16:30:50.514Z,74.14
2023-01-13T16:33:17.694Z,73.79
2023-01-13T16:36:09.721Z,73.89
2023-01-13T16:38:31.656Z,73.84
2023-01-13T16:40:58.765Z,73.65
2023-01-13T16:43:25.788Z,74.01
2023-01-13T16:45:52.997Z,74.07
2023-01-13T16:48:20.705Z,74.75
2023-01-13T16:50:47.802Z,75.01
2023-01-13T16:53:14.729Z,75.33
2023-01-13T16:55:43.016Z,75.49
2023-01-13T16:58:21.831Z,76.90
2023-01-13T17:00:48.877Z,76.35
2023-01-13T17:03:16.762Z,76.80
2023-01-13T17:05:47.218Z,77.21
2023-01-13T17:08:18.408Z,77.47
2023-01-13T17:10:46.733Z,77.20
2023-01-13T17:13:16.760Z,77.25
2023-01-13T17:15:45.334Z,76.69
2023-01-13T17:18:13.766Z,77.67
2023-01-13T17:20:41.505Z,78.73
2023-01-13T17:23:08.700Z,79.19
2023-01-13T17:25:35.704Z,79.63
2023-01-13T17:28:03.187Z,78.69
2023-01-13T17:30:30.134Z,79.46
2023-01-13T17:32:57.179Z,78.83
2023-01-13T17:35:27.501Z,78.90
2023-01-13T17:37:54.937Z,78.56
2023-01-13T17:40:22.061Z,78.63
2023-01-13T17:42:49.053Z,78.56
2023-01-13T17:45:16.560Z,78.75
2023-01-13T17:47:43.625Z,79.36
2023-01-13T17:50:11.040Z,78.64
2023-01-13T17:52:37.958Z,79.61
2023-01-13T17:55:05.203Z,79.00
2023-01-13T17:57:32.103Z,78.43
2023-01-13T18:00:01.890Z,78.79
2023-01-13T18:02:30.410Z,79.45
2023-01-13T18:04:57.392Z,79.63
2023-01-13T18:07:24.333Z,80.85
2023-01-13T18:09:51.336Z,81.10
2023-01-13T18:12:18.306Z,81.64
2023-01-13T18:14:45.456Z,81.54
2023-01-13T18:17:12.704Z,82.82
2023-01-13T18:19:58.235Z,83.03
2023-01-13T18:22:43.975Z,83.49
2023-01-13T18:25:32.411Z,84.06
2023-01-13T18:28:02.643Z,84.28
2023-01-13T18:30:29.616Z,83.87
2023-01-13T18:32:57.284Z,84.22
2023-01-13T18:35:24.450Z,83.90
2023-01-13T18:37:52.424Z,84.82
2023-01-13T18:40:19.527Z,85.55
2023-01-13T18:42:52.338Z,85.76
2023-01-13T18:45:33.109Z,86.33
2023-01-13T18:48:02.903Z,85.91
2023-01-13T18:50:30.727Z,86.97
2023-01-13T18:52:58.232Z,87.18
2023-01-13T18:55:26.011Z,87.59
2023-01-13T18:57:53.866Z,88.06
2023-01-13T19:00:23.321Z,87.86
2023-01-13T19:05:34.928Z,88.26
2023-01-13T19:08:02.506Z,89.58
2023-01-13T19:10:32.695Z,89.34
2023-01-13T19:13:01.439Z,90.32
2023-01-13T19:15:28.518Z,90.27
2023-01-13T19:17:55.498Z,90.21
2023-01-13T19:20:22.580Z,91.15
2023-01-13T19:22:54.338Z,92.19
2023-01-13T19:25:21.401Z,91.92
2023-01-13T19:27:48.319Z,92.72
2023-01-13T19:30:15.259Z,92.43
2023-01-13T19:32:42.335Z,92.68
2023-01-13T19:35:09.440Z,93.09
2023-01-13T19:37:37.157Z,92.66
2023-01-13T19:40:09.481Z,93.05
2023-01-13T19:42:55.799Z,93.32
2023-01-13T19:45:30.980Z,93.48
2023-01-13T19:48:02.047Z,93.49
2023-01-13T19:50:29.451Z,93.60
2023-01-13T19:52:56.564Z,93.75
2023-01-13T19:55:23.467Z,93.88
2023-01-13T19:57:51.933Z,94.66
2023-01-13T20:00:21.088Z,94.84
2023-01-13T20:02:49.866Z,95.24
2023-01-13T20:05:21.458Z,95.35
2023-01-13T20:07:52.613Z,95.49
2023-01-13T20:10:21.293Z,95.79
2023-01-13T20:12:48.542Z,95.81
2023-01-13T20:15:15.537Z,96.12
2023-01-13T20:17:42.505Z,96.79
2023-01-13T20:20:10.984Z,96.80
2023-01-13T20:22:41.206Z,97.32
2023-01-13T20:25:09.527Z,97.72
2023-01-13T20:27:36.984Z,97.31
2023-01-13T20:30:05.464Z,97.71
2023-01-13T20:32:32.410Z,97.50
2023-01-13T20:35:00.391Z,97.40
2023-01-13T20:37:27.455Z,97.92
2023-01-13T20:39:55.536Z,97.56
2023-01-13T20:42:45.302Z,97.74
2023-01-13T20:45:19.836Z,98.59
2023-01-13T20:47:47.315Z,98.42
2023-01-13T20:50:14.857Z,98.45
2023-01-13T20:52:41.921Z,98.57
2023-01-13T20:55:09.605Z,98.42
2023-01-13T20:57:36.547Z,98.36
2023-01-13T21:00:05.402Z,98.45
2023-01-13T21:02:32.645Z,98.79
2023-01-13T21:04:59.620Z,98.88
2023-01-13T21:07:26.624Z,98.53
2023-01-13T21:09:53.564Z,98.98
2023-01-13T21:12:39.061Z,99.03
2023-01-13T21:15:20.464Z,99.10
2023-01-13T21:18:07.855Z,98.90
2023-01-13T21:20:36.717Z,99.08
2023-01-13T21:23:05.109Z,99.07
2023-01-13T21:25:34.560Z,99.45
2023-01-13T21:28:10.462Z,99.05
2023-01-13T21:30:38.640Z,99.09
2023-01-13T21:33:06.523Z,99.33
2023-01-13T21:35:34.104Z,99.03
2023-01-13T21:38:01.048Z,98.88
2023-01-13T21:40:32.960Z,98.81
2023-01-13T21:43:18.286Z,98.74
2023-01-13T21:46:06.303Z,98.56
2023-01-13T21:48:33.281Z,98.43
2023-01-13T21:51:01.548Z,98.54
2023-01-13T21:53:28.592Z,98.21
2023-01-13T21:55:55.653Z,98.21
2023-01-13T21:58:22.647Z,98.26
2023-01-13T22:00:49.989Z,98.43
2023-01-13T22:03:18.880Z,98.34
2023-01-13T22:05:46.543Z,98.20
2023-01-13T22:08:13.916Z,98.37
2023-01-13T22:11:00.485Z,98.54
2023-01-13T22:13:47.754Z,98.41
2023-01-13T22:16:15.584Z,99.02
2023-01-13T22:18:42.629Z,98.63
2023-01-13T22:21:09.871Z,98.51
2023-01-13T22:23:37.907Z,98.60
2023-01-13T22:26:06.847Z,98.55
2023-01-13T22:28:40.546Z,98.47
2023-01-13T22:31:12.396Z,98.42
2023-01-13T22:33:39.921Z,98.57
2023-01-13T22:36:08.114Z,98.51
2023-01-13T22:38:36.165Z,98.21
2023-01-13T22:41:05.266Z,98.23
2023-01-13T22:43:32.727Z,98.18
2023-01-13T22:46:01.692Z,97.85
2023-01-13T22:48:29.139Z,97.43
2023-01-13T22:50:56.634Z,97.84
2023-01-13T22:53:23.721Z,97.28
2023-01-13T22:55:57.481Z,97.78
2023-01-13T22:58:25.167Z,97.56
2023-01-13T23:00:52.221Z,98.01
2023-01-13T23:03:19.771Z,97.89
2023-01-13T23:05:46.817Z,97.98
2023-01-13T23:08:14.766Z,98.02
2023-01-13T23:10:41.948Z,97.71
2023-01-13T23:13:09.560Z,97.78
2023-01-13T23:15:36.444Z,97.75
2023-01-13T23:18:03.504Z,97.45
2023-01-13T23:20:30.928Z,97.32
2023-01-13T23:23:00.768Z,97.18
2023-01-13T23:25:27.707Z,97.25
2023-01-13T23:27:56.658Z,97.11
2023-01-13T23:30:23.607Z,96.59
2023-01-13T23:32:50.585Z,96.79
2023-01-13T23:35:18.637Z,96.63
2023-01-13T23:37:45.598Z,96.56
2023-01-13T23:40:13.709Z,96.67
2023-01-13T23:42:40.641Z,96.58
2023-01-13T23:45:08.314Z,97.05
2023-01-13T23:47:36.442Z,96.69
2023-01-13T23:50:03.594Z,96.37
2023-01-13T23:52:30.566Z,96.79
2023-01-13T23:54:59.352Z,96.59
2023-01-13T23:57:26.347Z,96.84
2023-01-13T23:59:53.332Z,97.19
